Latest Weather Observations for Kowanyama

IDQ60801

Issued at 10:02 am EST Saturday 28 March 2015 (issued every 30 minutes, with the page automatically refreshed every 10 minutes)

About weather observations | Map of weather stations | Latest weather observations for QLD | Other Formats
Station Details ID: 029038 Name: KOWANYAMA AIRPORT Lat: -15.48 Lon: 141.75 Height: 9.6 m
Data from the previous 72 hours. | See also: Recent months at Kowanyama
Date/Time
EST
Temp
°C
App
Temp
°C
Dew
Point
Rel
Hum
%
Delta-T
°C
Wind Press
QNH
hPa
Press
MSL
hPa
Rain
since 9 am
mm
Dir
 
Spd
km/h
Gust
km/h
Spd
kts
Gust
kts
28/10:00am 29.5 30.7 21.4 61 5.4 E 17 26 9 14 1015.2 1015.1 0.0
28/09:30am 28.9 30.8 21.4 64 5.0 ENE 13 22 7 12 1015.3 1015.2 0.0
28/09:00am 27.7 30.1 22.2 72 3.7 E 13 19 7 10 1015.3 1015.2 0.2
28/08:00am 25.8 29.7 22.9 84 2.0 ENE 7 11 4 6 1014.6 1014.5 0.2
28/07:30am 24.3 28.3 22.7 91 1.1 ENE 6 7 3 4 1014.4 1014.3 0.2
28/07:00am 22.8 26.7 22.5 98 0.2 E 6 6 3 3 1014.1 1014.0 0.2
28/06:30am 23.0 27.9 22.3 96 0.5 CALM 0 0 0 0 1014.1 1014.0 0.2
28/06:00am 23.2 28.2 22.5 96 0.5 CALM 0 0 0 0 1013.8 1013.7 0.2
28/05:30am 23.3 28.4 22.6 96 0.5 CALM 0 0 0 0 1013.5 1013.4 0.2
28/05:00am 23.4 28.5 22.7 96 0.5 CALM 0 0 0 0 1013.2 1013.1 0.2
28/04:30am 23.5 28.5 22.5 94 0.7 CALM 0 0 0 0 1012.9 1012.8 0.2
28/04:00am 23.9 28.9 22.5 92 0.9 CALM 0 0 0 0 1012.9 1012.8 0.2
28/03:30am 24.1 29.1 22.5 91 1.1 CALM 0 0 0 0 1012.9 1012.8 0.2
28/03:00am 24.4 29.5 22.7 90 1.1 CALM 0 0 0 0 1012.9 1012.8 0.2
28/02:30am 24.7 29.9 22.8 89 1.3 CALM 0 0 0 0 1012.8 1012.7 0.2
28/02:00am 24.8 29.0 23.4 92 1.0 NE 7 11 4 6 1012.9 1012.8 0.2
28/01:30am 24.6 29.1 23.7 95 0.6 ENE 6 9 3 5 1013.0 1012.9 0.2
28/01:00am 24.8 29.4 24.1 96 0.5 NE 7 9 4 5 1013.3 1013.2 0.2
28/12:30am 24.9 29.5 24.2 96 0.5 ENE 7 11 4 6 1013.5 1013.4 0.2
 
Date/Time
EST
Temp
°C
App
Temp
°C
Dew
Point
Rel
Hum
%
Delta-T
°C
Wind Press
QNH
hPa
Press
MSL
hPa
Rain
since 9 am
mm
Dir
 
Spd
km/h
Gust
km/h
Spd
kts
Gust
kts
27/11:30pm 25.1 30.9 23.9 93 0.8 CALM 0 0 0 0 1013.7 1013.6 0.2
27/11:00pm 25.1 30.7 23.5 91 1.1 CALM 0 0 0 0 1013.5 1013.4 0.2
27/10:30pm 26.0 31.7 23.7 87 1.6 CALM 0 0 0 0 1013.6 1013.5 0.2
27/10:00pm 26.1 31.7 23.6 86 1.7 CALM 0 0 0 0 1013.6 1013.5 0.2
27/09:30pm 26.6 32.2 23.5 83 2.1 CALM 0 0 0 0 1013.4 1013.3 0.2
27/08:30pm 27.1 32.5 23.3 80 2.6 CALM 0 0 0 0 1013.0 1012.9 0.2
27/08:00pm 27.3 32.6 23.1 78 2.9 CALM 0 0 0 0 1012.7 1012.6 0.2
27/07:30pm 27.8 31.5 23.2 76 3.1 W 9 11 5 6 1012.4 1012.3 0.2
27/07:00pm 28.5 32.4 23.0 72 3.8 WNW 7 11 4 6 1011.9 1011.8 0.2
27/06:30pm 30.0 34.0 21.4 60 5.8 ENE 2 6 1 3 1011.5 1011.4 0.2
27/06:00pm 31.7 33.8 19.0 47 8.3 ENE 6 11 3 6 1011.0 1010.9 0.2
27/05:30pm 32.9 34.7 18.7 43 9.3 ENE 7 13 4 7 1010.7 1010.6 0.2
27/05:00pm 33.5 35.0 18.8 41 9.6 E 9 13 5 7 1010.5 1010.4 0.2
27/04:30pm 33.8 35.8 18.7 40 9.9 NE 6 13 3 7 1010.4 1010.3 0.2
27/04:00pm 33.4 34.1 17.1 37 10.4 E 9 17 5 9 1010.5 1010.4 0.2
27/03:30pm 33.7 34.3 18.6 40 9.8 ESE 13 19 7 10 1010.8 1010.7 0.2
27/03:00pm 33.4 35.7 19.8 44 9.0 N 7 11 4 6 1011.3 1011.2 0.2
27/02:30pm 32.7 34.6 18.5 43 9.2 SSE 6 11 3 6 1011.5 1011.4 0.2
27/02:00pm 33.3 35.7 20.1 45 8.8 NNE 7 13 4 7 1012.0 1011.9 0.2
27/01:30pm 32.9 35.1 21.1 50 7.9 NE 11 15 6 8 1012.5 1012.4 0.2
27/01:00pm 32.4 35.1 21.3 52 7.5 NE 9 15 5 8 1013.0 1012.9 0.2
27/12:30pm 32.0 34.7 22.1 55 6.7 NE 11 17 6 9 1013.6 1013.5 0.2
27/12:00pm 31.5 33.8 21.4 55 6.8 NE 11 17 6 9 1014.2 1014.1 0.2
27/11:30am 30.6 32.6 20.8 56 6.5 E 11 15 6 8 1014.8 1014.7 0.2
27/11:00am 30.8 33.9 22.1 59 5.9 ENE 9 17 5 9 1015.4 1015.3 0.0
27/10:30am 29.9 32.1 21.8 62 5.5 ESE 13 20 7 11 1015.6 1015.5 0.0
27/10:00am 29.2 32.1 22.4 66 4.6 E 11 17 6 9 1015.7 1015.6 0.0
27/09:30am 28.5 31.1 22.7 71 3.9 ENE 13 17 7 9 1015.8 1015.7 0.0
27/09:00am 27.8 31.4 23.0 75 3.3 NE 9 20 5 11 1015.5 1015.4 8.4
27/08:30am 27.0 30.5 22.8 78 2.8 NE 9 15 5 8 1015.2 1015.1 8.4
27/08:00am 25.9 30.7 24.1 90 1.2 ENE 6 9 3 5 1014.8 1014.7 8.4
27/07:30am 24.8 31.1 24.8 100 0.0 CALM 0 7 0 4 1014.4 1014.3 8.4
27/07:00am 23.9 28.6 23.9 100 0.0 ESE 6 7 3 4 1014.0 1013.9 8.4
27/06:30am 23.7 29.0 23.7 100 0.0 S 2 6 1 3 1014.0 1013.9 8.4
27/06:00am 24.1 29.2 24.1 100 0.0 SSE 4 6 2 3 1013.9 1013.8 8.4
27/05:30am 24.1 29.2 24.1 100 0.0 NE 4 7 2 4 1013.8 1013.7 8.4
27/05:00am 24.2 30.2 24.2 100 0.0 CALM 0 0 0 0 1013.7 1013.6 8.4
27/04:30am 24.1 30.0 24.1 100 0.0 CALM 0 0 0 0 1013.5 1013.4 8.4
27/04:00am 24.2 29.4 24.2 100 0.0 NNE 4 9 2 5 1013.2 1013.1 8.4
27/03:30am 24.2 28.8 24.2 100 0.0 NE 7 11 4 6 1013.3 1013.2 8.4
27/03:00am 24.3 29.2 24.3 100 0.0 NE 6 9 3 5 1013.3 1013.2 8.4
27/02:30am 24.4 29.3 24.4 100 0.0 NE 6 9 3 5 1013.4 1013.3 8.2
27/02:00am 24.5 29.3 24.5 100 0.0 ESE 7 9 4 5 1013.8 1013.7 8.2
27/01:30am 24.3 28.6 24.3 100 0.0 NE 9 13 5 7 1013.9 1013.8 8.0
27/01:00am 24.1 27.9 24.1 100 0.0 NE 11 15 6 8 1014.3 1014.2 7.8
27/12:30am 24.0 28.7 24.0 100 0.0 E 6 9 3 5 1015.0 1014.9 7.8
27/12:00am 23.8 27.8 23.8 100 0.0 ENE 9 17 5 9 1015.2 1015.1 7.8
 
Date/Time
EST
Temp
°C
App
Temp
°C
Dew
Point
Rel
Hum
%
Delta-T
°C
Wind Press
QNH
hPa
Press
MSL
hPa
Rain
since 9 am
mm
Dir
 
Spd
km/h
Gust
km/h
Spd
kts
Gust
kts
26/11:30pm 23.9 28.6 23.9 100 0.0 N 6 9 3 5 1015.0 1014.9 7.8
26/11:00pm 24.0 28.5 23.7 98 0.2 NNW 6 7 3 4 1015.3 1015.2 7.8
26/10:30pm 24.0 28.1 23.3 96 0.5 SE 7 11 4 6 1015.6 1015.5 7.6
26/10:00pm 23.9 28.4 22.9 94 0.7 S 4 9 2 5 1015.6 1015.5 7.0
26/09:30pm 24.2 28.1 22.6 91 1.1 E 6 7 3 4 1014.8 1014.7 6.4
26/09:00pm 24.4 27.7 22.5 89 1.3 SSW 9 15 5 8 1014.4 1014.3 6.4
26/08:30pm 24.8 26.8 22.9 89 1.3 SW 17 26 9 14 1014.5 1014.4 6.2
26/08:00pm 25.0 27.9 23.8 93 0.8 SSW 15 20 8 11 1014.6 1014.5 6.2
26/07:30pm 25.3 29.8 23.9 92 1.0 WSW 7 11 4 6 1013.4 1013.3 6.2
26/07:00pm 25.8 28.8 24.0 90 1.2 SSW 15 19 8 10 1013.1 1013.0 6.2
26/06:30pm 27.3 33.1 26.1 93 0.8 NW 7 11 4 6 1012.4 1012.3 6.2
26/06:00pm 27.5 32.3 25.7 90 1.3 NNW 11 17 6 9 1012.6 1012.5 6.0
26/05:30pm 27.7 32.3 26.5 93 0.9 WNW 15 20 8 11 1011.7 1011.6 6.0
26/05:00pm 27.0 31.5 25.8 93 0.8 NW 13 17 7 9 1011.5 1011.4 6.0
26/04:30pm 29.1 32.5 24.6 76 3.1 WSW 15 20 8 11 1011.5 1011.4 1.8
26/04:00pm 30.6 33.9 24.5 70 4.3 NW 15 20 8 11 1011.2 1011.1 1.2
26/03:30pm 29.8 33.2 25.3 77 3.2 WNW 17 20 9 11 1011.3 1011.2 1.2
26/03:00pm 32.6 34.9 24.1 61 5.9 WNW 19 26 10 14 1011.2 1011.1 0.0
26/02:30pm 32.5 35.1 24.0 61 5.9 W 17 24 9 13 1011.5 1011.4 0.0
26/02:00pm 33.7 37.6 22.5 52 7.7 SSW 6 11 3 6 1011.8 1011.7 0.0
26/01:30pm 33.6 36.5 21.7 49 8.1 ESE 9 13 5 7 1012.4 1012.3 0.0
26/01:00pm 33.1 36.6 21.9 51 7.6 E 6 9 3 5 1013.0 1012.9 0.0
26/12:30pm 32.6 35.9 21.8 53 7.3 WSW 7 11 4 6 1013.7 1013.6 0.0
26/12:00pm 33.0 37.7 23.9 59 6.3 N 6 13 3 7 1014.3 1014.2 0.0
26/11:30am 32.2 36.7 22.9 58 6.4 SSE 4 13 2 7 1014.7 1014.6 0.0
26/11:00am 32.1 36.5 22.8 58 6.4 N 4 7 2 4 1014.9 1014.8 0.0
26/10:30am 31.0 34.7 22.6 61 5.7 NNW 7 11 4 6 1015.0 1014.9 0.0
26/10:00am 30.9 35.0 23.0 62 5.4 E 6 11 3 6 1015.2 1015.1 0.0
26/09:30am 29.9 33.1 23.1 67 4.7 NE 11 15 6 8 1015.3 1015.2 0.0
26/09:00am 29.0 32.2 23.0 70 4.1 NNE 11 17 6 9 1015.1 1015.0 0.0
26/08:30am 28.0 30.5 23.1 74 3.3 NNE 15 20 8 11 1015.0 1014.9 0.0
26/08:00am 26.9 30.3 23.4 81 2.4 NE 11 17 6 9 1015.0 1014.9 0.0
26/07:30am 25.9 29.9 23.8 88 1.4 NE 9 13 5 7 1014.6 1014.5 0.0
26/07:00am 25.0 29.6 24.1 95 0.6 NE 7 13 4 7 1014.2 1014.1 0.0
26/06:30am 24.7 29.3 23.8 95 0.6 NNE 6 7 3 4 1013.9 1013.8 0.0
26/06:00am 25.0 30.1 24.0 94 0.7 NE 4 7 2 4 1013.8 1013.7 0.0
26/05:30am 25.0 29.1 24.0 94 0.7 ENE 9 11 5 6 1013.4 1013.3 0.0
26/05:00am 25.1 29.6 23.7 92 1.0 E 6 9 3 5 1013.4 1013.3 0.0
26/04:30am 25.3 29.8 23.7 91 1.1 ESE 6 7 3 4 1013.1 1013.0 0.0
26/04:00am 25.6 30.2 23.8 90 1.2 ESE 6 9 3 5 1013.2 1013.1 0.0
26/03:30am 25.6 30.1 24.0 91 1.1 SE 7 9 4 5 1013.2 1013.1 0.0
26/03:00am 25.4 31.0 23.6 90 1.2 CALM 0 0 0 0 1013.2 1013.1 0.0
26/02:30am 25.7 31.3 23.6 88 1.4 CALM 0 0 0 0 1013.3 1013.2 0.0
26/02:00am 26.1 31.7 23.6 86 1.7 CALM 0 0 0 0 1013.3 1013.2 0.0
26/01:30am 26.6 31.9 23.7 84 2.0 SSE 2 7 1 4 1013.3 1013.2 0.0
26/01:00am 26.9 31.6 24.0 84 2.0 SSE 6 7 3 4 1013.4 1013.3 0.0
26/12:30am 27.0 32.8 23.9 83 2.1 CALM 0 0 0 0 1013.7 1013.6 0.0
26/12:00am 27.1 33.1 24.2 84 2.0 CALM 0 0 0 0 1014.1 1014.0 0.0
 
Date/Time
EST
Temp
°C
App
Temp
°C
Dew
Point
Rel
Hum
%
Delta-T
°C
Wind Press
QNH
hPa
Press
MSL
hPa
Rain
since 9 am
mm
Dir
 
Spd
km/h
Gust
km/h
Spd
kts
Gust
kts
25/11:30pm 27.1 31.8 24.0 83 2.1 SSW 6 7 3 4 1014.2 1014.1 0.0
25/11:00pm 27.0 31.9 24.3 85 1.9 SW 6 7 3 4 1014.3 1014.2 0.0
25/10:30pm 26.9 32.6 23.8 83 2.1 CALM 0 0 0 0 1014.1 1014.0 0.0
25/10:00pm 27.4 33.0 23.6 80 2.6 CALM 0 0 0 0 1013.8 1013.7 0.0
25/09:30pm 27.4 32.9 23.4 79 2.7 CALM 0 6 0 3 1013.7 1013.6 0.0
25/09:00pm 27.4 31.9 23.6 80 2.6 WSW 6 7 3 4 1013.7 1013.6 0.0
25/08:30pm 27.8 32.9 23.4 77 3.0 WNW 2 6 1 3 1013.4 1013.3 0.0
25/08:00pm 27.8 32.0 23.4 77 3.0 WNW 7 9 4 5 1013.2 1013.1 0.0
25/07:30pm 28.4 32.1 23.3 74 3.5 W 9 13 5 7 1012.9 1012.8 0.0
25/07:00pm 29.2 31.8 22.7 68 4.4 W 13 17 7 9 1012.6 1012.5 0.0
25/06:30pm 31.4 34.3 20.7 53 7.1 NNE 6 7 3 4 1012.1 1012.0 0.0
25/06:00pm 32.7 35.6 20.6 49 8.1 NE 6 7 3 4 1011.7 1011.6 0.0
25/05:30pm 33.2 35.1 19.7 45 8.9 E 9 17 5 9 1011.4 1011.3 0.0
25/05:00pm 33.6 35.5 19.7 44 9.2 ENE 9 15 5 8 1011.3 1011.2 0.0
25/04:30pm 33.7 35.4 20.1 44 9.1 E 11 15 6 8 1011.2 1011.1 0.0
25/04:00pm 33.5 35.7 20.3 46 8.8 E 9 13 5 7 1011.2 1011.1 0.0
25/03:30pm 33.2 35.2 20.0 45 8.8 E 9 15 5 8 1011.2 1011.1 0.0
25/03:00pm 33.5 34.6 19.6 44 9.2 ESE 13 20 7 11 1011.2 1011.1 0.0
25/02:30pm 33.3 35.1 20.4 46 8.6 E 11 17 6 9 1011.5 1011.4 0.0
25/02:00pm 33.3 34.8 19.7 44 9.0 SE 11 19 6 10 1011.8 1011.7 0.0
25/01:30pm 32.8 35.0 20.3 47 8.3 E 9 17 5 9 1012.3 1012.2 0.0
25/01:00pm 33.0 35.2 21.2 50 8.0 NE 11 15 6 8 1012.9 1012.8 0.0
25/12:30pm 31.9 34.1 20.5 51 7.6 E 9 13 5 7 1013.5 1013.4 0.0
25/12:00pm 31.8 34.5 20.7 51 7.4 ESE 7 13 4 7 1014.2 1014.1 0.0
25/11:30am 31.6 34.3 21.4 54 6.9 ENE 9 19 5 10 1014.7 1014.6 0.0
25/11:00am 31.5 33.8 21.4 55 6.8 NE 11 17 6 9 1015.2 1015.1 0.0
25/10:30am 30.6 32.4 21.1 57 6.4 ENE 13 17 7 9 1015.5 1015.4 0.0

Other Formats:

Comma delimited format used in spreadsheet applications
http://www.bom.gov.au/fwo/IDQ60801/IDQ60801.94268.axf

JavaScript Object Notation format (JSON) in row-major order
http://www.bom.gov.au/fwo/IDQ60801/IDQ60801.94268.json